Time;durP1;ratioP1;P1;durP2;ratioP2;P2;SDS_P1;SDS_P2;PMS_P1;PMS_P2;Temp;Humidity;BMP_temperature;BMP_pressure;BME280_temperature;BME280_humidity;BME280_pressure;Samples;Min_cycle;Max_cycle;Signal;HPM_P1;HPM_P2
2024/02/14 00:02:09;;;;;;;3.35;0.82;;;8.20;99.90;;;;;;6252375;22;20034;-87
2024/02/14 00:04:35;;;;;;;2.75;0.80;;;8.20;99.90;;;;;;6252163;22;20011;-87
2024/02/14 00:07:01;;;;;;;2.70;0.60;;;8.30;99.90;;;;;;6251665;22;20533;-86
2024/02/14 00:09:26;;;;;;;1.55;0.40;;;8.20;99.90;;;;;;6278043;22;20010;-87
2024/02/14 00:11:52;;;;;;;1.27;0.40;;;8.20;99.90;;;;;;6251900;22;20034;-88
2024/02/14 00:14:20;;;;;;;1.75;0.50;;;8.20;99.90;;;;;;6277444;22;20325;-86
2024/02/14 00:16:46;;;;;;;3.25;0.50;;;8.20;99.90;;;;;;6277627;22;20010;-87
2024/02/14 00:19:11;;;;;;;1.75;0.63;;;8.30;99.90;;;;;;6251537;22;20007;-87
2024/02/14 00:21:38;;;;;;;1.80;0.47;;;8.30;99.90;;;;;;6277941;22;20061;-88
2024/02/14 00:24:04;;;;;;;1.17;0.43;;;8.30;99.90;;;;;;6252182;22;20090;-88
2024/02/14 00:26:30;;;;;;;1.80;0.60;;;8.30;99.90;;;;;;6251211;22;20015;-88
2024/02/14 00:28:56;;;;;;;2.83;0.75;;;8.40;99.90;;;;;;6251958;22;20972;-86
2024/02/14 00:31:22;;;;;;;1.38;0.45;;;8.40;99.90;;;;;;6277599;22;20006;-87
2024/02/14 00:33:47;;;;;;;1.23;0.50;;;8.40;99.90;;;;;;6251993;22;20054;-87
2024/02/14 00:36:13;;;;;;;1.27;0.50;;;8.40;99.90;;;;;;6251584;22;20450;-86
2024/02/14 00:38:39;;;;;;;1.30;0.60;;;8.40;99.90;;;;;;6251889;22;20003;-87
2024/02/14 00:41:04;;;;;;;2.42;0.70;;;8.50;99.90;;;;;;6277736;22;20014;-87
2024/02/14 00:43:30;;;;;;;1.20;0.45;;;8.40;99.90;;;;;;6252094;22;20080;-87
2024/02/14 00:45:58;;;;;;;3.03;0.70;;;8.40;99.90;;;;;;6252442;22;20003;-88
2024/02/14 00:48:24;;;;;;;2.70;0.93;;;8.50;99.90;;;;;;6277212;22;20019;-87
2024/02/14 00:50:52;;;;;;;2.15;0.57;;;8.50;99.90;;;;;;6252183;22;20502;-87
2024/02/14 00:53:17;;;;;;;1.95;0.57;;;8.50;99.90;;;;;;6251998;22;20015;-87
2024/02/14 00:55:43;;;;;;;1.40;0.70;;;8.50;99.90;;;;;;6252477;22;20014;-87
2024/02/14 00:58:09;;;;;;;1.30;0.60;;;8.50;99.90;;;;;;6251837;22;20011;-87
2024/02/14 01:00:35;;;;;;;2.90;0.88;;;8.50;99.90;;;;;;6252255;22;20038;-87
2024/02/14 01:03:02;;;;;;;2.58;0.63;;;8.50;99.90;;;;;;6277263;22;20003;-88
2024/02/14 01:05:28;;;;;;;2.20;0.70;;;8.50;99.90;;;;;;6277513;22;20037;-90
2024/02/14 01:07:53;;;;;;;1.55;0.80;;;8.60;99.90;;;;;;6251856;22;20014;-87
2024/02/14 01:10:20;;;;;;;2.65;0.70;;;8.60;99.90;;;;;;6276995;22;19999;-89
2024/02/14 01:12:45;;;;;;;1.45;0.65;;;8.60;99.90;;;;;;6277494;22;20359;-87
2024/02/14 01:15:11;;;;;;;1.98;0.70;;;8.60;99.90;;;;;;6277356;22;20021;-88
2024/02/14 01:17:38;;;;;;;1.73;0.50;;;8.60;99.90;;;;;;6304230;22;20062;-88
2024/02/14 01:20:08;;;;;;;1.52;0.52;;;8.60;99.90;;;;;;6277468;22;20034;-87
2024/02/14 01:22:36;;;;;;;1.65;0.50;;;8.70;99.90;;;;;;6277022;22;20003;-88
2024/02/14 01:25:02;;;;;;;3.42;0.95;;;8.70;99.90;;;;;;6277715;22;20007;-87
2024/02/14 01:27:28;;;;;;;1.77;0.60;;;8.70;99.90;;;;;;6251585;22;20003;-89
2024/02/14 01:29:55;;;;;;;1.20;0.50;;;8.70;99.90;;;;;;6251889;22;20018;-88
2024/02/14 01:32:21;;;;;;;1.52;0.80;;;8.70;99.90;;;;;;6251429;22;20009;-88
2024/02/14 01:34:46;;;;;;;2.25;0.60;;;8.80;99.90;;;;;;6277588;22;20007;-87
2024/02/14 01:37:12;;;;;;;1.00;0.50;;;8.80;99.90;;;;;;6250714;22;19999;-88
2024/02/14 01:39:38;;;;;;;1.20;0.50;;;8.80;99.90;;;;;;6304589;22;20031;-88
2024/02/14 01:42:07;;;;;;;1.40;0.50;;;8.90;99.90;;;;;;6278054;22;20011;-87
2024/02/14 01:44:34;;;;;;;1.17;0.60;;;8.90;99.90;;;;;;6252147;22;20012;-88
2024/02/14 01:47:03;;;;;;;1.50;0.60;;;8.90;99.90;;;;;;6276973;22;20241;-86
2024/02/14 01:49:29;;;;;;;1.60;0.60;;;8.90;99.90;;;;;;6277347;22;20023;-87
2024/02/14 01:52:01;;;;;;;3.40;1.13;;;8.90;99.90;;;;;;6277599;22;20027;-87
2024/02/14 01:54:27;;;;;;;2.80;0.90;;;8.90;99.90;;;;;;6276550;22;20110;-88
2024/02/14 01:56:54;;;;;;;1.60;0.70;;;8.90;99.90;;;;;;6277594;22;20010;-88
2024/02/14 01:59:20;;;;;;;1.98;0.90;;;8.90;99.90;;;;;;6277161;22;20027;-89
2024/02/14 02:01:46;;;;;;;3.25;1.23;;;9.00;99.90;;;;;;6251711;22;20003;-88
2024/02/14 02:04:12;;;;;;;2.67;0.88;;;9.10;99.90;;;;;;6278519;22;20046;-88
2024/02/14 02:06:38;;;;;;;5.38;1.35;;;9.10;99.90;;;;;;6278865;22;20332;-87
2024/02/14 02:09:04;;;;;;;2.33;0.85;;;9.10;99.90;;;;;;6279387;22;20351;-88
2024/02/14 02:11:30;;;;;;;2.40;0.95;;;9.10;99.90;;;;;;6279032;22;20059;-87
2024/02/14 02:13:56;;;;;;;2.63;0.90;;;9.10;99.90;;;;;;6253155;22;20106;-87
2024/02/14 02:16:22;;;;;;;3.40;0.95;;;9.10;99.90;;;;;;6253205;22;20042;-87
2024/02/14 02:18:48;;;;;;;2.85;1.67;;;9.10;99.90;;;;;;6253960;22;20531;-88
2024/02/14 02:21:14;;;;;;;2.03;0.90;;;9.10;99.90;;;;;;6253546;22;20007;-87
2024/02/14 02:23:44;;;;;;;3.13;1.17;;;9.10;99.90;;;;;;6279265;22;20018;-87
2024/02/14 02:26:11;;;;;;;2.58;0.73;;;9.20;99.90;;;;;;6253577;22;20007;-86
2024/02/14 02:28:39;;;;;;;2.45;0.80;;;9.20;99.90;;;;;;6279542;22;20018;-87
2024/02/14 02:31:05;;;;;;;2.03;0.80;;;9.20;99.90;;;;;;6278852;22;20001;-85
2024/02/14 02:33:30;;;;;;;2.03;0.90;;;9.20;99.90;;;;;;6252980;22;20327;-87
2024/02/14 02:35:56;;;;;;;2.72;0.90;;;9.20;99.90;;;;;;6254139;22;20060;-86
2024/02/14 02:38:22;;;;;;;2.63;0.85;;;9.20;99.90;;;;;;6253071;22;20003;-88
2024/02/14 02:40:48;;;;;;;2.33;1.33;;;9.30;99.90;;;;;;6279504;22;20008;-87
2024/02/14 02:43:14;;;;;;;2.30;1.08;;;9.20;99.90;;;;;;6278694;22;20026;-88
2024/02/14 02:45:39;;;;;;;3.90;1.60;;;9.20;99.90;;;;;;6253068;22;20022;-88
2024/02/14 02:48:05;;;;;;;3.70;1.70;;;9.20;99.90;;;;;;6253304;22;20019;-87
2024/02/14 02:50:31;;;;;;;2.97;1.13;;;9.30;99.90;;;;;;6278918;22;20010;-87
2024/02/14 02:52:57;;;;;;;3.22;1.10;;;9.20;99.90;;;;;;6279283;22;20089;-88
2024/02/14 02:55:23;;;;;;;2.83;1.20;;;9.20;99.90;;;;;;6278731;22;20006;-88
2024/02/14 02:57:48;;;;;;;2.47;1.00;;;9.20;99.90;;;;;;6279413;22;19996;-88
2024/02/14 03:00:15;;;;;;;3.92;1.20;;;9.20;99.90;;;;;;6252504;22;20046;-87
2024/02/14 03:02:44;;;;;;;3.95;1.88;;;9.30;99.90;;;;;;6253467;22;20058;-88
2024/02/14 03:05:17;;;;;;;2.42;1.35;;;9.30;99.90;;;;;;6278632;22;20633;-87
2024/02/14 03:07:47;;;;;;;3.58;1.75;;;9.30;99.90;;;;;;6279505;22;20383;-88
2024/02/14 03:10:14;;;;;;;2.60;1.67;;;9.30;99.90;;;;;;6253011;22;20007;-88
2024/02/14 03:12:40;;;;;;;2.72;1.08;;;9.40;99.90;;;;;;6253389;22;20053;-88
2024/02/14 03:15:10;;;;;;;3.33;1.58;;;9.40;99.90;;;;;;6278263;22;20428;-87
2024/02/14 03:17:35;;;;;;;2.85;1.10;;;9.40;99.90;;;;;;6278677;22;20003;-87
2024/02/14 03:20:01;;;;;;;2.75;1.30;;;9.40;99.90;;;;;;6252548;22;20135;-88
2024/02/14 03:22:27;;;;;;;3.03;1.05;;;9.40;99.90;;;;;;6251849;22;20313;-87
2024/02/14 03:24:52;;;;;;;3.17;1.77;;;9.40;99.90;;;;;;6278658;22;20006;-88
2024/02/14 03:27:18;;;;;;;3.22;1.00;;;9.40;99.90;;;;;;6278059;22;20011;-88
2024/02/14 03:29:44;;;;;;;2.67;1.08;;;9.40;99.90;;;;;;6253025;22;20003;-87
2024/02/14 03:32:10;;;;;;;2.78;1.65;;;9.50;99.90;;;;;;6252897;22;20108;-87
2024/02/14 03:34:36;;;;;;;2.60;1.33;;;9.50;99.90;;;;;;6305344;22;20018;-88
2024/02/14 03:37:02;;;;;;;2.40;1.00;;;9.50;99.90;;;;;;6253313;22;20011;-88
2024/02/14 03:39:29;;;;;;;2.63;1.27;;;9.40;99.90;;;;;;6278569;22;20078;-88
2024/02/14 03:41:55;;;;;;;3.95;1.13;;;9.50;99.90;;;;;;6279330;22;20011;-88
2024/02/14 03:44:22;;;;;;;1.80;1.00;;;9.60;99.90;;;;;;6252901;22;20003;-89
2024/02/14 03:46:48;;;;;;;2.65;1.30;;;9.60;99.90;;;;;;6253870;22;20030;-89
2024/02/14 03:49:14;;;;;;;2.78;0.93;;;9.50;99.90;;;;;;6253349;22;20016;-87
2024/02/14 03:51:40;;;;;;;1.98;0.95;;;9.60;99.90;;;;;;6306376;22;20007;-89
2024/02/14 03:54:06;;;;;;;1.65;0.80;;;9.60;99.90;;;;;;6253074;22;20072;-89
2024/02/14 03:56:32;;;;;;;2.33;1.40;;;9.60;99.90;;;;;;6253223;22;20027;-88
2024/02/14 03:59:02;;;;;;;2.55;1.63;;;9.60;99.90;;;;;;6253211;22;20011;-90
2024/02/14 04:01:29;;;;;;;;;;;9.70;99.90;;;;;;6254384;22;20379;-88
2024/02/14 04:03:54;;;;;;;2.33;1.25;;;9.70;99.90;;;;;;6278822;22;19938;-87
2024/02/14 04:06:20;;;;;;;4.65;1.38;;;9.70;99.90;;;;;;6252548;22;20324;-88
2024/02/14 04:08:46;;;;;;;2.60;1.20;;;9.80;99.90;;;;;;6253150;22;19999;-87
2024/02/14 04:11:13;;;;;;;4.28;1.38;;;9.80;99.90;;;;;;6252416;22;20030;-88
2024/02/14 04:13:39;;;;;;;2.72;1.10;;;9.80;99.90;;;;;;6278241;22;20011;-88
2024/02/14 04:16:05;;;;;;;5.63;1.20;;;9.80;99.90;;;;;;6252627;22;20086;-88
2024/02/14 04:18:30;;;;;;;2.78;1.08;;;9.80;99.90;;;;;;6277831;22;20096;-88
2024/02/14 04:20:56;;;;;;;3.10;1.10;;;9.80;99.90;;;;;;6253081;22;20081;-88
2024/02/14 04:23:22;;;;;;;2.30;1.10;;;9.80;99.90;;;;;;6252698;22;20370;-88
2024/02/14 04:25:48;;;;;;;3.40;0.93;;;9.80;99.90;;;;;;6278183;22;20036;-89
2024/02/14 04:28:14;;;;;;;2.83;1.15;;;9.80;99.90;;;;;;6252536;22;20331;-88
2024/02/14 04:30:41;;;;;;;2.35;0.93;;;9.80;99.90;;;;;;6278750;22;20014;-88
2024/02/14 04:33:08;;;;;;;2.47;0.95;;;9.90;99.90;;;;;;6253259;22;20038;-86
2024/02/14 04:35:33;;;;;;;2.42;1.27;;;9.90;99.90;;;;;;6252512;22;20057;-88
2024/02/14 04:37:59;;;;;;;1.90;1.05;;;9.80;99.90;;;;;;6252986;22;20007;-88
2024/02/14 04:40:25;;;;;;;3.45;1.30;;;9.90;99.90;;;;;;6278233;22;20118;-87
2024/02/14 04:42:50;;;;;;;2.65;1.35;;;9.90;99.90;;;;;;6305999;22;20011;-88
2024/02/14 04:45:16;;;;;;;2.65;1.02;;;9.90;99.90;;;;;;6278510;22;19999;-90
2024/02/14 04:47:42;;;;;;;3.40;0.95;;;9.90;99.90;;;;;;6253179;22;20007;-88
2024/02/14 04:50:08;;;;;;;2.72;0.90;;;10.00;99.90;;;;;;6305672;22;20016;-88
2024/02/14 04:52:34;;;;;;;3.33;1.55;;;10.00;99.90;;;;;;6278351;22;20003;-89
2024/02/14 04:54:59;;;;;;;2.75;0.98;;;10.00;99.90;;;;;;6252759;22;20042;-88
2024/02/14 04:57:25;;;;;;;4.00;1.30;;;10.00;99.90;;;;;;6252469;22;20011;-88
2024/02/14 04:59:51;;;;;;;3.15;1.85;;;10.00;99.90;;;;;;6253152;22;20007;-88
2024/02/14 05:02:17;;;;;;;3.17;1.33;;;10.00;99.90;;;;;;6277887;22;20003;-89
2024/02/14 05:04:43;;;;;;;3.78;1.75;;;10.00;99.90;;;;;;6278672;22;20496;-89
2024/02/14 05:07:09;;;;;;;5.00;2.17;;;10.00;99.90;;;;;;6252487;22;20011;-89
2024/02/14 05:09:34;;;;;;;2.15;1.30;;;10.00;99.90;;;;;;6253034;22;20089;-89
2024/02/14 05:12:00;;;;;;;3.65;2.00;;;10.00;99.90;;;;;;6305440;22;20010;-89
2024/02/14 05:14:26;;;;;;;2.42;1.33;;;10.00;99.90;;;;;;6278128;22;20082;-88
2024/02/14 05:16:51;;;;;;;2.88;1.23;;;10.00;99.90;;;;;;6278068;22;20014;-88
2024/02/14 05:19:17;;;;;;;4.05;1.92;;;10.00;99.90;;;;;;6278489;22;20011;-88
2024/02/14 05:21:43;;;;;;;3.20;2.00;;;10.00;99.90;;;;;;6252711;22;20004;-89
2024/02/14 05:24:08;;;;;;;4.60;1.67;;;10.00;99.90;;;;;;6277629;22;19999;-90
2024/02/14 05:26:35;;;;;;;3.58;1.67;;;10.00;99.90;;;;;;6276001;22;20007;-89
2024/02/14 05:29:00;;;;;;;4.03;1.60;;;10.00;99.90;;;;;;6252509;22;20417;-90
2024/02/14 05:31:46;;;;;;;2.88;1.60;;;10.10;99.90;;;;;;6251836;22;20026;-90
2024/02/14 05:34:12;;;;;;;3.38;1.58;;;10.10;99.90;;;;;;6252409;22;20138;-91
2024/02/14 05:36:38;;;;;;;2.85;1.17;;;10.10;99.90;;;;;;6252642;22;20500;-88
2024/02/14 05:39:05;;;;;;;4.00;2.60;;;10.10;99.90;;;;;;6304545;22;20003;-88
2024/02/14 05:41:32;;;;;;;3.80;1.95;;;10.10;99.90;;;;;;6277832;22;20054;-89
2024/02/14 05:43:58;;;;;;;2.65;1.73;;;10.10;99.90;;;;;;6252125;22;20011;-89
2024/02/14 05:48:55;;;;;;;2.58;1.88;;;10.20;99.90;;;;;;6304777;22;20608;-88
2024/02/14 05:51:21;;;;;;;3.10;2.20;;;10.10;99.90;;;;;;6252023;22;20014;-89
2024/02/14 05:53:46;;;;;;;3.47;1.90;;;10.10;99.90;;;;;;6251695;22;20265;-89
2024/02/14 05:56:12;;;;;;;2.88;1.48;;;10.20;99.90;;;;;;6251869;22;20527;-89
2024/02/14 05:58:37;;;;;;;3.47;1.52;;;10.20;99.90;;;;;;6278054;22;20490;-88
2024/02/14 06:01:06;;;;;;;2.83;1.50;;;10.10;99.90;;;;;;6251449;22;20336;-89
2024/02/14 06:03:32;;;;;;;3.13;1.60;;;10.10;99.90;;;;;;6277641;22;20015;-88
2024/02/14 06:05:58;;;;;;;3.47;1.25;;;10.20;99.90;;;;;;6277491;22;20530;-89
2024/02/14 06:08:24;;;;;;;3.33;1.40;;;10.20;99.90;;;;;;6304158;22;20003;-89
2024/02/14 06:10:50;;;;;;;2.67;1.00;;;10.20;99.90;;;;;;6251563;22;20057;-88
2024/02/14 06:13:15;;;;;;;2.83;1.60;;;10.20;99.90;;;;;;6251671;22;20007;-89
2024/02/14 06:15:41;;;;;;;2.42;1.40;;;10.20;99.90;;;;;;6277871;22;20007;-90
2024/02/14 06:18:07;;;;;;;3.25;1.30;;;10.20;99.90;;;;;;6251978;22;20011;-89
2024/02/14 06:20:33;;;;;;;3.20;1.15;;;10.20;99.90;;;;;;6277522;22;20013;-88
2024/02/14 06:22:58;;;;;;;2.97;1.33;;;10.20;99.90;;;;;;6251782;22;20439;-89
2024/02/14 06:25:24;;;;;;;1.70;0.95;;;10.20;99.90;;;;;;6276926;22;20363;-90
2024/02/14 06:27:49;;;;;;;2.58;1.10;;;10.20;99.90;;;;;;6277499;22;20014;-88
2024/02/14 06:30:16;;;;;;;2.22;1.10;;;10.20;99.90;;;;;;6277233;22;19999;-89
2024/02/14 06:32:45;;;;;;;2.83;1.30;;;10.20;99.90;;;;;;6252260;22;20031;-89
2024/02/14 06:35:11;;;;;;;2.47;1.20;;;10.20;99.90;;;;;;6277398;22;20011;-89
2024/02/14 06:37:37;;;;;;;4.05;2.03;;;10.30;99.90;;;;;;6305070;22;20003;-89
2024/02/14 06:40:02;;;;;;;3.42;1.63;;;10.30;99.90;;;;;;6250978;22;20008;-91
2024/02/14 06:42:28;;;;;;;3.42;1.42;;;10.30;99.90;;;;;;6277237;22;20424;-89
2024/02/14 06:44:54;;;;;;;3.38;1.25;;;10.30;99.90;;;;;;6304346;22;19999;-89
2024/02/14 06:47:19;;;;;;;2.72;1.17;;;10.30;99.90;;;;;;6251734;22;20093;-90
2024/02/14 06:49:45;;;;;;;2.40;1.08;;;10.30;99.90;;;;;;6279107;22;20382;-90
2024/02/14 06:52:10;;;;;;;1.98;1.05;;;10.30;99.90;;;;;;6252999;22;20501;-89
2024/02/14 06:54:36;;;;;;;2.35;1.10;;;10.30;99.90;;;;;;6253773;22;20134;-90
2024/02/14 06:57:02;;;;;;;4.20;1.55;;;10.30;99.90;;;;;;6278899;22;20332;-92
2024/02/14 06:59:28;;;;;;;2.20;1.00;;;10.30;99.90;;;;;;6253597;22;20020;-91
2024/02/14 07:01:54;;;;;;;2.72;1.30;;;10.30;99.90;;;;;;6253728;22;20447;-90
2024/02/14 07:04:25;;;;;;;2.17;1.00;;;10.30;99.90;;;;;;6253443;22;20042;-91
2024/02/14 07:06:52;;;;;;;2.67;1.30;;;10.30;99.90;;;;;;6253660;22;20058;-91
2024/02/14 07:09:18;;;;;;;3.45;1.45;;;10.40;99.90;;;;;;6278391;22;20062;-91
2024/02/14 07:11:45;;;;;;;2.30;0.90;;;10.40;99.90;;;;;;6279819;22;20004;-89
2024/02/14 07:14:11;;;;;;;2.25;1.17;;;10.40;99.90;;;;;;6253501;22;20518;-91
2024/02/14 07:16:37;;;;;;;3.53;1.63;;;10.40;99.90;;;;;;6278893;22;20014;-90
2024/02/14 07:19:03;;;;;;;3.55;2.25;;;10.40;99.90;;;;;;6253509;22;20007;-90
2024/02/14 07:21:28;;;;;;;2.22;1.38;;;10.50;99.90;;;;;;6253102;22;19999;-90
2024/02/14 07:23:54;;;;;;;3.25;1.45;;;10.50;99.90;;;;;;6253298;22;20015;-88
2024/02/14 07:26:20;;;;;;;2.17;1.77;;;10.40;99.90;;;;;;6253384;22;20006;-88
2024/02/14 07:28:46;;;;;;;2.13;1.23;;;10.50;99.90;;;;;;6278871;22;20022;-88
2024/02/14 07:31:12;;;;;;;3.60;2.80;;;10.50;99.90;;;;;;6253411;22;20000;-89
2024/02/14 07:33:37;;;;;;;3.55;3.17;;;10.50;99.90;;;;;;6278279;22;20444;-89
2024/02/14 07:36:03;;;;;;;3.45;2.15;;;10.50;99.90;;;;;;6253423;22;20035;-89
2024/02/14 07:38:29;;;;;;;4.03;1.80;;;10.50;99.90;;;;;;6253216;22;20030;-88
2024/02/14 07:40:54;;;;;;;3.60;2.58;;;10.50;99.90;;;;;;6278823;22;20349;-89
2024/02/14 07:43:20;;;;;;;4.82;3.35;;;10.50;99.90;;;;;;6278269;22;20013;-89
2024/02/14 07:45:45;;;;;;;4.63;3.22;;;10.60;99.90;;;;;;6279046;22;20106;-89
2024/02/14 07:48:11;;;;;;;4.53;2.50;;;10.60;99.90;;;;;;6253433;22;20011;-90
2024/02/14 07:50:37;;;;;;;3.42;2.05;;;10.60;99.90;;;;;;6253352;22;20011;-89
2024/02/14 07:53:03;;;;;;;4.55;2.83;;;10.70;99.90;;;;;;6278679;22;20007;-90
2024/02/14 07:55:28;;;;;;;5.10;3.30;;;10.70;99.90;;;;;;6252961;22;20011;-90
2024/02/14 07:57:54;;;;;;;3.72;2.70;;;10.70;99.90;;;;;;6253508;22;20514;-90
2024/02/14 08:00:22;;;;;;;6.63;4.90;;;10.70;99.90;;;;;;6279124;22;20345;-90
2024/02/14 08:02:51;;;;;;;6.55;4.70;;;10.70;99.90;;;;;;6279218;22;20003;-90
2024/02/14 08:05:17;;;;;;;4.97;3.58;;;10.70;99.90;;;;;;6253040;22;20047;-90
2024/02/14 08:07:45;;;;;;;4.18;3.50;;;10.70;99.90;;;;;;6253350;22;20428;-89
2024/02/14 08:10:10;;;;;;;4.05;3.47;;;10.70;99.90;;;;;;6279207;22;20007;-92
2024/02/14 08:12:36;;;;;;;3.88;2.88;;;10.70;99.90;;;;;;6253663;22;20499;-90
2024/02/14 08:15:04;;;;;;;6.40;3.50;;;10.70;99.90;;;;;;6306208;22;20023;-91
2024/02/14 08:17:30;;;;;;;3.72;2.85;;;10.70;99.90;;;;;;6252958;22;20281;-91
2024/02/14 08:19:56;;;;;;;4.93;3.13;;;10.80;99.90;;;;;;6253747;22;20090;-92
2024/02/14 08:22:21;;;;;;;4.63;3.30;;;10.80;99.90;;;;;;6278489;22;20038;-91
2024/02/14 08:24:47;;;;;;;4.97;3.88;;;10.80;99.90;;;;;;6253041;22;20371;-90
2024/02/14 08:27:13;;;;;;;9.65;3.47;;;10.90;99.90;;;;;;6278390;22;20004;-92
2024/02/14 08:29:38;;;;;;;5.07;3.50;;;10.90;99.90;;;;;;6253080;22;20003;-90
2024/02/14 08:32:04;;;;;;;4.68;2.90;;;10.90;99.90;;;;;;6306307;22;20010;-90
2024/02/14 08:34:30;;;;;;;4.68;3.60;;;10.90;99.90;;;;;;6277927;22;20073;-90
2024/02/14 08:36:56;;;;;;;5.72;3.33;;;10.90;99.90;;;;;;6306158;22;19999;-91
2024/02/14 08:39:22;;;;;;;5.95;4.22;;;11.00;99.90;;;;;;6252803;22;20007;-91
2024/02/14 08:41:47;;;;;;;6.60;4.00;;;11.00;99.90;;;;;;6252570;22;20053;-90
2024/02/14 08:44:13;;;;;;;5.55;3.92;;;10.90;99.90;;;;;;6279358;22;20018;-90
2024/02/14 08:46:42;;;;;;;5.03;2.78;;;11.00;99.90;;;;;;6277965;22;20007;-90
2024/02/14 08:49:08;;;;;;;3.08;2.42;;;10.90;99.90;;;;;;6278948;22;20007;-91
2024/02/14 08:51:38;;;;;;;2.58;1.75;;;10.90;99.90;;;;;;6278636;22;20396;-88
2024/02/14 08:54:06;;;;;;;3.00;1.97;;;11.00;99.90;;;;;;6249865;22;20011;-90
2024/02/14 08:56:33;;;;;;;2.70;1.77;;;11.00;99.90;;;;;;6278232;22;20030;-89
2024/02/14 08:59:02;;;;;;;2.88;1.13;;;11.00;99.90;;;;;;6253095;22;20004;-89
2024/02/14 09:01:31;;;;;;;2.63;1.95;;;11.10;99.90;;;;;;6252489;22;20026;-90
2024/02/14 09:03:58;;;;;;;3.10;1.23;;;11.10;99.90;;;;;;6278209;22;20010;-91
2024/02/14 09:06:26;;;;;;;2.30;1.60;;;11.10;99.90;;;;;;6252544;22;20000;-91
2024/02/14 09:08:52;;;;;;;2.05;1.20;;;11.10;99.90;;;;;;6305728;22;20015;-89
2024/02/14 09:11:18;;;;;;;3.05;2.15;;;11.10;99.90;;;;;;6277543;22;20459;-90
2024/02/14 09:13:43;;;;;;;2.08;1.17;;;11.10;99.90;;;;;;6278517;22;20011;-90
2024/02/14 09:16:10;;;;;;;3.72;1.95;;;11.10;99.90;;;;;;6278198;22;20014;-91
2024/02/14 09:18:36;;;;;;;2.35;1.48;;;11.20;99.90;;;;;;6278015;22;20014;-89
2024/02/14 09:21:05;;;;;;;2.90;1.58;;;11.20;99.90;;;;;;6252953;22;20089;-90
2024/02/14 09:23:31;;;;;;;3.95;2.42;;;11.20;99.90;;;;;;6277872;22;20069;-91
2024/02/14 09:25:57;;;;;;;3.35;1.65;;;11.20;99.90;;;;;;6278199;22;20003;-90
2024/02/14 09:28:23;;;;;;;3.90;1.95;;;11.20;99.90;;;;;;6252385;22;20081;-90
2024/02/14 09:30:48;;;;;;;3.15;2.20;;;11.20;99.90;;;;;;6278009;22;20420;-91
2024/02/14 09:33:14;;;;;;;2.60;1.33;;;11.20;99.90;;;;;;6304754;22;20324;-90
2024/02/14 09:35:44;;;;;;;3.33;1.02;;;11.30;99.90;;;;;;6277931;22;20007;-91
2024/02/14 09:38:12;;;;;;;3.45;1.83;;;11.30;99.90;;;;;;6278419;22;20011;-92
2024/02/14 09:40:40;;;;;;;3.22;1.60;;;11.30;99.90;;;;;;6253572;22;20026;-91
2024/02/14 09:43:14;;;;;;;2.78;1.10;;;11.30;99.90;;;;;;6278265;22;20007;-91
2024/02/14 09:45:41;;;;;;;2.20;1.17;;;11.30;99.90;;;;;;6252628;22;20004;-92
2024/02/14 09:48:08;;;;;;;3.00;1.88;;;11.40;99.90;;;;;;6252496;22;20328;-91
2024/02/14 09:50:34;;;;;;;3.13;1.85;;;11.40;99.90;;;;;;6252209;22;20374;-90
2024/02/14 09:53:03;;;;;;;3.15;2.25;;;11.30;99.90;;;;;;6252440;22;20066;-92
2024/02/14 09:55:29;;;;;;;5.40;2.72;;;11.40;99.90;;;;;;6278057;22;19996;-91
2024/02/14 09:57:56;;;;;;;3.90;2.40;;;11.30;99.90;;;;;;6252329;22;20100;-91
2024/02/14 10:00:23;;;;;;;4.05;2.47;;;11.30;99.90;;;;;;6277389;22;20011;-91
2024/02/14 10:02:52;;;;;;;4.50;2.55;;;11.30;99.90;;;;;;6277912;22;20012;-90
2024/02/14 10:05:29;;;;;;;3.28;1.80;;;11.30;99.90;;;;;;6254619;22;20090;-90
2024/02/14 10:07:57;;;;;;;3.75;2.42;;;11.20;99.90;;;;;;6252738;22;20018;-91
2024/02/14 10:10:24;;;;;;;3.08;2.22;;;11.30;99.90;;;;;;6278240;22;19995;-90
2024/02/14 10:12:50;;;;;;;5.38;4.03;;;11.30;99.90;;;;;;6305219;22;20466;-92
2024/02/14 10:15:16;;;;;;;6.60;4.85;;;11.30;99.90;;;;;;6277310;22;20007;-90
2024/02/14 10:17:43;;;;;;;3.88;3.47;;;11.30;99.90;;;;;;6278251;22;20004;-89
2024/02/14 10:20:09;;;;;;;4.47;2.95;;;11.30;99.90;;;;;;6277992;22;20011;-91
2024/02/14 10:22:36;;;;;;;5.15;2.83;;;11.30;99.90;;;;;;6278283;22;20009;-90
2024/02/14 10:25:09;;;;;;;6.70;3.30;;;11.30;99.90;;;;;;6280431;22;20011;-90
2024/02/14 10:27:38;;;;;;;6.95;3.35;;;11.40;99.90;;;;;;6253974;22;20045;-89
2024/02/14 10:30:09;;;;;;;4.00;2.50;;;11.40;99.90;;;;;;6254354;22;20003;-88
2024/02/14 10:32:36;;;;;;;5.30;4.80;;;11.40;99.90;;;;;;6254414;22;20011;-88
2024/02/14 10:35:08;;;;;;;5.20;3.97;;;11.50;99.90;;;;;;6254330;22;20015;-87
2024/02/14 10:37:35;;;;;;;5.00;2.90;;;11.60;99.90;;;;;;6279526;22;20011;-90
2024/02/14 10:40:04;;;;;;;6.47;3.53;;;11.70;99.90;;;;;;6253804;22;20435;-90
2024/02/14 10:42:33;;;;;;;2.95;2.22;;;11.70;99.90;;;;;;6279330;22;20492;-91
2024/02/14 10:45:02;;;;;;;5.25;2.67;;;11.70;99.90;;;;;;6254434;22;20007;-87
2024/02/14 10:47:35;;;;;;;6.15;3.60;;;11.70;99.90;;;;;;6279402;22;20467;-89
2024/02/14 10:50:05;;;;;;;5.72;3.97;;;11.70;99.90;;;;;;6279832;22;20041;-90
2024/02/14 10:52:40;;;;;;;4.85;2.95;;;11.70;99.90;;;;;;6279470;22;20026;-90
2024/02/14 10:55:06;;;;;;;7.20;3.70;;;11.70;99.90;;;;;;6278939;22;20019;-91
2024/02/14 10:57:32;;;;;;;4.35;3.10;;;11.70;99.90;;;;;;6278738;22;20015;-90
2024/02/14 11:00:07;;;;;;;6.13;3.08;;;11.80;99.90;;;;;;6253711;22;20011;-90
2024/02/14 11:02:33;;;;;;;4.80;2.97;;;11.80;99.90;;;;;;6279390;22;20011;-90
2024/02/14 11:05:00;;;;;;;4.85;2.80;;;11.80;99.90;;;;;;6253944;22;20003;-90
2024/02/14 11:07:28;;;;;;;3.60;2.15;;;11.90;99.90;;;;;;6279627;22;20090;-91
2024/02/14 11:10:05;;;;;;;5.43;3.00;;;12.00;99.90;;;;;;6253919;22;20022;-94
2024/02/14 11:12:39;;;;;;;4.63;3.20;;;12.00;99.90;;;;;;6253373;22;20022;-91
2024/02/14 11:15:17;;;;;;;7.82;3.53;;;12.10;99.90;;;;;;6254006;22;20019;-92
2024/02/14 11:17:43;;;;;;;5.35;2.08;;;12.10;99.90;;;;;;6253643;22;20439;-90
2024/02/14 11:20:15;;;;;;;5.45;2.80;;;12.10;99.90;;;;;;6253712;22;19999;-91
2024/02/14 11:22:57;;;;;;;5.43;2.83;;;12.10;99.90;;;;;;6306547;22;20014;-89
2024/02/14 11:25:28;;;;;;;4.78;2.80;;;12.10;99.90;;;;;;6253146;22;20394;-91
2024/02/14 11:27:54;;;;;;;3.38;1.92;;;12.10;99.90;;;;;;6306648;22;20007;-92
2024/02/14 11:30:40;;;;;;;4.63;3.22;;;12.10;99.90;;;;;;6253760;22;20010;-91
2024/02/14 11:33:20;;;;;;;3.10;2.25;;;12.10;99.90;;;;;;6279002;22;20172;-91
2024/02/14 11:35:49;;;;;;;5.00;2.20;;;12.20;99.90;;;;;;6252757;22;20011;-88
2024/02/14 11:38:15;;;;;;;5.93;2.30;;;12.20;99.90;;;;;;6279335;22;20003;-90
2024/02/14 11:40:41;;;;;;;4.95;2.53;;;12.20;99.90;;;;;;6278777;22;20050;-91
2024/02/14 11:43:16;;;;;;;3.22;2.13;;;12.20;99.90;;;;;;6253442;22;20428;-90
2024/02/14 11:45:43;;;;;;;5.15;2.55;;;12.20;99.90;;;;;;6279367;22;20007;-92
2024/02/14 11:48:13;;;;;;;5.57;2.60;;;12.20;99.90;;;;;;6278941;22;20053;-91
2024/02/14 11:50:43;;;;;;;2.55;1.67;;;12.10;99.90;;;;;;6279241;22;20022;-93
2024/02/14 11:53:16;;;;;;;4.45;3.20;;;12.10;99.90;;;;;;6278581;22;20043;-89
2024/02/14 11:55:42;;;;;;;5.35;3.20;;;12.10;99.90;;;;;;6253367;22;20003;-91
2024/02/14 11:58:11;;;;;;;3.10;2.28;;;12.10;99.90;;;;;;6279074;22;20003;-89
2024/02/14 12:00:41;;;;;;;4.57;2.28;;;12.10;99.90;;;;;;6306578;22;20012;-90
2024/02/14 12:03:08;;;;;;;3.97;2.03;;;12.10;99.90;;;;;;6249896;22;20022;-90
2024/02/14 12:05:36;;;;;;;3.90;2.50;;;12.10;99.90;;;;;;6306121;22;20022;-89
2024/02/14 12:08:02;;;;;;;4.38;2.10;;;12.10;99.90;;;;;;6278923;22;20090;-90
2024/02/14 12:10:30;;;;;;;4.50;2.47;;;12.10;99.90;;;;;;6277933;22;20008;-90
2024/02/14 12:12:56;;;;;;;6.78;4.07;;;12.10;99.90;;;;;;6278397;22;20011;-90
2024/02/14 12:15:22;;;;;;;4.53;2.80;;;12.00;99.90;;;;;;6253028;22;20423;-88
2024/02/14 12:17:49;;;;;;;4.75;2.55;;;12.00;99.90;;;;;;6279050;22;20004;-90
2024/02/14 12:20:16;;;;;;;6.72;4.05;;;12.10;99.90;;;;;;6278443;22;20094;-90
2024/02/14 12:22:41;;;;;;;4.13;2.95;;;12.00;99.90;;;;;;6253296;22;20000;-91
2024/02/14 12:25:11;;;;;;;3.25;2.95;;;12.10;99.90;;;;;;6278734;22;20454;-92
2024/02/14 12:27:37;;;;;;;2.90;2.03;;;12.10;99.90;;;;;;6253504;22;20007;-90
2024/02/14 12:30:10;;;;;;;2.50;1.50;;;12.10;99.90;;;;;;6278637;22;20008;-91
2024/02/14 12:32:35;;;;;;;3.17;1.55;;;12.20;99.90;;;;;;6278826;22;20021;-91
2024/02/14 12:35:01;;;;;;;3.00;1.80;;;12.20;99.90;;;;;;6252640;22;20082;-91
2024/02/14 12:37:27;;;;;;;1.65;1.05;;;12.20;99.90;;;;;;6252904;22;19999;-91
2024/02/14 12:39:53;;;;;;;2.67;1.63;;;12.30;99.90;;;;;;6253051;22;20033;-89
2024/02/14 12:42:24;;;;;;;3.03;1.83;;;12.30;99.90;;;;;;6253300;22;20060;-90
2024/02/14 12:44:52;;;;;;;2.30;1.40;;;12.30;99.90;;;;;;6278916;22;20007;-90
2024/02/14 12:47:18;;;;;;;2.42;1.80;;;12.30;99.90;;;;;;6272433;22;20008;-90
2024/02/14 12:49:45;;;;;;;2.30;1.33;;;12.20;99.90;;;;;;6274004;22;20007;-90
2024/02/14 12:52:11;;;;;;;1.85;0.98;;;12.30;99.90;;;;;;6272782;22;20436;-89